createdAt,value
2023-02-15T00:00:13.634Z,55.88
2023-02-15T00:02:42.434Z,56.09
2023-02-15T00:05:12.048Z,56.77
2023-02-15T00:07:41.453Z,56.97
2023-02-15T00:10:12.126Z,56.42
2023-02-15T00:12:40.455Z,56.40
2023-02-15T00:15:09.399Z,55.40
2023-02-15T00:17:37.744Z,56.88
2023-02-15T00:20:07.032Z,56.36
2023-02-15T00:22:36.707Z,56.23
2023-02-15T00:25:05.296Z,56.94
2023-02-15T00:27:33.570Z,56.61
2023-02-15T00:30:01.846Z,56.56
2023-02-15T00:32:30.132Z,56.22
2023-02-15T00:34:58.368Z,55.85
2023-02-15T00:37:26.796Z,55.84
2023-02-15T00:39:56.483Z,56.44
2023-02-15T00:42:24.736Z,56.14
2023-02-15T00:44:53.009Z,56.44
2023-02-15T00:47:21.191Z,56.66
2023-02-15T00:49:49.522Z,56.78
2023-02-15T00:52:17.846Z,55.78
2023-02-15T00:54:46.089Z,56.00
2023-02-15T00:57:15.665Z,55.81
2023-02-15T00:59:44.003Z,55.96
2023-02-15T01:02:12.225Z,56.40
2023-02-15T01:04:40.560Z,56.56
2023-02-15T01:07:08.959Z,56.61
2023-02-15T01:09:37.282Z,57.17
2023-02-15T01:12:05.730Z,55.88
2023-02-15T01:14:35.478Z,55.77
2023-02-15T01:17:03.793Z,58.24
2023-02-15T01:19:32.025Z,60.22
2023-02-15T01:22:00.352Z,60.66
2023-02-15T01:24:28.670Z,60.54
2023-02-15T01:26:56.963Z,62.35
2023-02-15T01:29:25.252Z,61.95
2023-02-15T01:31:55.070Z,59.75
2023-02-15T01:34:23.279Z,59.62
2023-02-15T01:36:51.611Z,59.85
2023-02-15T01:39:20.024Z,60.75
2023-02-15T01:41:48.214Z,63.78
2023-02-15T01:44:52.674Z,64.64
2023-02-15T01:50:06.227Z,68.84
2023-02-15T01:52:38.766Z,67.81
2023-02-15T01:55:09.273Z,66.87
2023-02-15T01:57:38.158Z,65.69
2023-02-15T02:00:10.793Z,63.66
2023-02-15T02:02:41.440Z,64.85
2023-02-15T02:05:10.406Z,64.50
2023-02-15T02:07:42.100Z,61.89
2023-02-15T02:10:14.458Z,60.17
2023-02-15T02:12:44.753Z,60.47
2023-02-15T02:15:14.163Z,60.38
2023-02-15T02:17:57.213Z,59.99
2023-02-15T02:20:51.482Z,60.71
2023-02-15T02:23:29.787Z,60.35
2023-02-15T02:26:28.163Z,60.09
2023-02-15T02:29:28.797Z,61.00
2023-02-15T02:32:38.147Z,59.99
2023-02-15T02:35:13.692Z,60.82
2023-02-15T02:37:52.862Z,60.26
2023-02-15T02:40:28.594Z,61.22
2023-02-15T02:43:04.408Z,62.44
2023-02-15T02:45:38.743Z,62.62
2023-02-15T02:48:11.564Z,62.61
2023-02-15T02:50:42.416Z,62.23
2023-02-15T02:53:12.206Z,61.20
2023-02-15T02:55:45.422Z,60.53
2023-02-15T02:58:18.441Z,60.04
2023-02-15T03:00:50.825Z,59.99
2023-02-15T03:03:28.654Z,59.69
2023-02-15T03:06:02.522Z,59.13
2023-02-15T03:08:36.539Z,58.96
2023-02-15T03:11:06.359Z,58.41
2023-02-15T03:13:35.585Z,58.42
2023-02-15T03:16:23.242Z,58.03
2023-02-15T03:18:58.712Z,58.52
2023-02-15T03:21:36.811Z,60.31
2023-02-15T03:24:10.578Z,61.85
2023-02-15T03:26:40.054Z,62.10
2023-02-15T03:29:10.125Z,60.68
2023-02-15T03:31:42.783Z,62.33
2023-02-15T03:34:14.033Z,60.41
2023-02-15T03:36:48.842Z,62.50
2023-02-15T03:39:23.100Z,61.46
2023-02-15T03:41:58.866Z,59.31
2023-02-15T03:44:31.474Z,58.80
2023-02-15T03:47:06.703Z,58.87
2023-02-15T03:49:44.526Z,60.02
2023-02-15T03:52:17.148Z,60.29
2023-02-15T03:54:47.125Z,59.45
2023-02-15T03:57:36.213Z,59.24
2023-02-15T04:00:24.207Z,58.78
2023-02-15T04:03:09.551Z,59.08
2023-02-15T04:05:37.864Z,59.33
2023-02-15T04:08:07.900Z,59.32
2023-02-15T04:10:53.484Z,59.00
2023-02-15T04:13:22.082Z,58.61
2023-02-15T04:16:05.379Z,58.72
2023-02-15T04:18:53.893Z,59.31
2023-02-15T04:21:40.839Z,60.74
2023-02-15T04:24:28.872Z,61.03
2023-02-15T04:26:58.024Z,61.15
2023-02-15T04:29:27.802Z,61.83
2023-02-15T04:31:57.508Z,61.65
2023-02-15T04:34:26.296Z,61.86
2023-02-15T04:36:54.609Z,62.42
2023-02-15T04:39:24.416Z,62.34
2023-02-15T04:41:52.763Z,63.69
2023-02-15T04:44:21.016Z,63.81
2023-02-15T04:46:49.357Z,63.49
2023-02-15T04:49:17.729Z,63.26
2023-02-15T04:51:46.050Z,63.24
2023-02-15T04:54:14.357Z,63.12
2023-02-15T04:56:44.541Z,63.47
2023-02-15T04:59:13.104Z,63.03
2023-02-15T05:01:41.566Z,65.98
2023-02-15T05:04:10.358Z,68.78
2023-02-15T05:06:38.727Z,71.81
2023-02-15T05:09:07.124Z,73.54
2023-02-15T05:11:35.648Z,73.90
2023-02-15T05:14:05.368Z,74.54
2023-02-15T05:16:34.123Z,73.47
2023-02-15T05:19:02.669Z,71.68
2023-02-15T05:21:30.905Z,71.50
2023-02-15T05:23:59.151Z,70.48
2023-02-15T05:26:45.099Z,68.76
2023-02-15T05:29:14.701Z,68.67
2023-02-15T05:31:45.505Z,67.13
2023-02-15T05:34:13.977Z,67.42
2023-02-15T05:36:42.312Z,68.16
2023-02-15T05:39:10.534Z,66.33
2023-02-15T05:41:38.852Z,67.75
2023-02-15T05:44:10.353Z,65.14
2023-02-15T05:46:40.180Z,66.36
2023-02-15T05:49:08.507Z,66.72
2023-02-15T05:51:36.815Z,66.26
2023-02-15T05:54:05.263Z,67.56
2023-02-15T05:56:33.591Z,69.30
2023-02-15T05:59:04.395Z,70.24
2023-02-15T06:01:32.788Z,68.34
2023-02-15T06:04:02.406Z,69.08
2023-02-15T06:06:30.745Z,66.42
2023-02-15T06:08:58.994Z,63.88
2023-02-15T06:11:27.378Z,62.78
2023-02-15T06:13:55.706Z,60.67
2023-02-15T06:16:24.032Z,61.70
2023-02-15T06:18:53.757Z,61.06
2023-02-15T06:21:23.563Z,60.29
2023-02-15T06:23:51.857Z,59.71
2023-02-15T06:26:20.141Z,59.02
2023-02-15T06:28:48.466Z,59.58
2023-02-15T06:31:17.051Z,59.24
2023-02-15T06:33:45.419Z,57.87
2023-02-15T06:36:14.869Z,57.01
2023-02-15T06:38:44.732Z,55.08
2023-02-15T06:41:13.048Z,53.92
2023-02-15T06:43:41.369Z,53.81
2023-02-15T06:46:11.103Z,53.02
2023-02-15T06:48:39.486Z,53.21
2023-02-15T06:51:07.865Z,53.24
2023-02-15T06:53:36.876Z,53.92
2023-02-15T06:56:10.267Z,54.18
2023-02-15T06:58:38.857Z,54.07
2023-02-15T07:01:08.320Z,53.41
2023-02-15T07:03:37.390Z,54.02
2023-02-15T07:06:09.413Z,54.19
2023-02-15T07:08:38.637Z,53.22
2023-02-15T07:11:26.485Z,52.47
2023-02-15T07:13:54.792Z,52.67
2023-02-15T07:16:23.514Z,51.96
2023-02-15T07:18:51.850Z,50.61
2023-02-15T07:21:20.069Z,50.46
2023-02-15T07:23:48.873Z,49.98
2023-02-15T07:26:18.645Z,50.40
2023-02-15T07:28:46.836Z,48.32
2023-02-15T07:31:15.224Z,47.99
2023-02-15T07:33:43.711Z,45.97
2023-02-15T07:36:13.217Z,45.38
2023-02-15T07:38:43.666Z,44.89
2023-02-15T07:41:13.883Z,45.08
2023-02-15T07:43:44.970Z,45.73
2023-02-15T07:46:14.973Z,44.66
2023-02-15T07:48:44.454Z,44.34
2023-02-15T07:51:14.069Z,44.08
2023-02-15T07:53:43.399Z,42.74
2023-02-15T07:56:14.109Z,43.06
2023-02-15T07:58:57.046Z,42.54
2023-02-15T08:01:27.111Z,42.08
2023-02-15T08:03:56.218Z,42.22
2023-02-15T08:06:26.066Z,41.79
2023-02-15T08:08:54.559Z,40.96
2023-02-15T08:11:29.913Z,40.60
2023-02-15T08:14:01.438Z,42.17
2023-02-15T08:16:32.513Z,40.37
2023-02-15T08:19:02.576Z,40.05
2023-02-15T08:21:32.332Z,41.45
2023-02-15T08:24:01.495Z,40.81
2023-02-15T08:26:31.514Z,40.38
2023-02-15T08:29:02.488Z,40.17
2023-02-15T08:31:31.302Z,39.21
2023-02-15T08:33:59.925Z,39.46
2023-02-15T08:36:30.972Z,40.32
2023-02-15T08:39:00.200Z,39.63
2023-02-15T08:41:30.424Z,38.97
2023-02-15T08:44:01.969Z,38.11
2023-02-15T08:46:32.871Z,37.23
2023-02-15T08:49:01.515Z,36.48
2023-02-15T08:51:31.764Z,34.68
2023-02-15T08:54:02.189Z,33.10
2023-02-15T08:56:32.909Z,33.78
2023-02-15T08:59:03.130Z,34.09
2023-02-15T09:01:33.339Z,32.56
2023-02-15T09:04:03.189Z,33.46
2023-02-15T09:06:31.542Z,33.25
2023-02-15T09:09:00.017Z,33.07
2023-02-15T09:11:30.475Z,34.19
2023-02-15T09:14:01.025Z,32.74
2023-02-15T09:16:32.817Z,31.87
2023-02-15T09:19:02.418Z,30.98
2023-02-15T09:21:31.611Z,30.36
2023-02-15T09:24:02.189Z,29.82
2023-02-15T09:26:32.253Z,29.31
2023-02-15T09:29:02.673Z,30.74
2023-02-15T09:31:34.694Z,30.26
2023-02-15T09:34:03.805Z,31.88
2023-02-15T09:36:33.714Z,31.20
2023-02-15T09:39:06.985Z,31.10
2023-02-15T09:42:03.022Z,31.40
2023-02-15T09:44:44.066Z,30.99
2023-02-15T09:47:31.692Z,30.96
2023-02-15T09:50:07.757Z,30.91
2023-02-15T09:52:48.998Z,31.75
2023-02-15T09:55:36.253Z,30.02
2023-02-15T09:58:13.877Z,29.98
2023-02-15T10:00:48.834Z,29.64
2023-02-15T10:03:35.976Z,29.74
2023-02-15T10:06:27.183Z,29.17
2023-02-15T10:09:21.768Z,28.45
2023-02-15T10:12:05.184Z,27.60
2023-02-15T10:14:59.243Z,28.27
2023-02-15T10:17:43.047Z,30.52
2023-02-15T10:20:26.018Z,30.06
2023-02-15T10:23:16.053Z,29.42
2023-02-15T10:25:53.716Z,27.54
2023-02-15T10:28:26.116Z,27.47
2023-02-15T10:31:00.581Z,27.48
2023-02-15T10:33:40.894Z,26.87
2023-02-15T10:36:25.865Z,26.52
2023-02-15T10:39:03.619Z,26.49
2023-02-15T10:41:46.266Z,27.08
2023-02-15T10:44:34.802Z,28.63
2023-02-15T10:47:33.199Z,26.76
2023-02-15T10:50:27.612Z,27.41
2023-02-15T10:53:23.203Z,27.02
2023-02-15T10:56:03.667Z,25.63
2023-02-15T10:58:48.721Z,26.80
2023-02-15T11:01:24.677Z,27.50
2023-02-15T11:04:33.202Z,28.09
2023-02-15T11:07:06.046Z,28.69
2023-02-15T11:09:43.095Z,28.63
2023-02-15T11:12:18.353Z,27.16
2023-02-15T11:14:53.661Z,28.05
2023-02-15T11:17:27.049Z,28.59
2023-02-15T11:20:03.938Z,27.07
2023-02-15T11:22:35.554Z,26.31
2023-02-15T11:25:19.574Z,25.85
2023-02-15T11:27:50.830Z,26.44
2023-02-15T11:30:22.658Z,27.99
2023-02-15T11:32:54.100Z,27.52
2023-02-15T11:35:28.826Z,27.76
2023-02-15T11:38:03.725Z,28.02
2023-02-15T11:40:37.588Z,28.63
2023-02-15T11:43:09.494Z,28.32
2023-02-15T11:45:39.535Z,28.11
2023-02-15T11:48:13.585Z,28.07
2023-02-15T11:50:42.318Z,26.98
2023-02-15T11:53:15.812Z,26.34
2023-02-15T11:55:47.027Z,26.47
2023-02-15T11:58:25.570Z,27.71
2023-02-15T12:01:01.493Z,25.95
2023-02-15T12:03:45.682Z,25.75
2023-02-15T12:06:21.318Z,25.61
2023-02-15T12:08:54.793Z,26.16
2023-02-15T12:11:31.602Z,25.76
2023-02-15T12:14:01.766Z,25.80
2023-02-15T12:16:34.523Z,26.34
2023-02-15T12:19:04.664Z,27.03
2023-02-15T12:21:36.205Z,25.66
2023-02-15T12:24:15.432Z,25.08
2023-02-15T12:26:45.580Z,26.49
2023-02-15T12:29:19.466Z,26.59
2023-02-15T12:31:51.092Z,26.53
2023-02-15T12:34:23.782Z,27.42
2023-02-15T12:36:59.004Z,26.73
2023-02-15T12:39:29.703Z,26.05
2023-02-15T12:42:05.581Z,26.00
2023-02-15T12:44:35.646Z,26.01
2023-02-15T12:47:05.989Z,25.35
2023-02-15T12:49:35.351Z,25.41
2023-02-15T12:52:07.902Z,27.02
2023-02-15T12:54:41.590Z,26.49
2023-02-15T12:57:30.099Z,25.70
2023-02-15T13:00:00.280Z,26.98
2023-02-15T13:02:37.977Z,26.36
2023-02-15T13:05:17.414Z,26.61
2023-02-15T13:07:48.902Z,25.83
2023-02-15T13:10:29.540Z,25.78
2023-02-15T13:13:00.006Z,27.93
2023-02-15T13:15:36.828Z,27.35
2023-02-15T13:18:07.695Z,26.61
2023-02-15T13:20:41.656Z,27.69
2023-02-15T13:23:24.647Z,27.77
2023-02-15T13:25:53.446Z,27.71
2023-02-15T13:28:27.482Z,27.02
2023-02-15T13:30:55.932Z,26.65
2023-02-15T13:33:29.061Z,26.94
2023-02-15T13:36:05.404Z,27.99
2023-02-15T13:39:14.023Z,26.91
2023-02-15T13:41:53.540Z,28.46
2023-02-15T13:44:37.538Z,28.53
2023-02-15T13:47:19.943Z,27.04
2023-02-15T13:50:02.214Z,26.46
2023-02-15T13:52:33.066Z,27.98
2023-02-15T13:55:26.038Z,28.64
2023-02-15T13:58:27.573Z,29.00
2023-02-15T14:01:09.625Z,27.79
2023-02-15T14:04:20.597Z,28.64
2023-02-15T14:06:59.647Z,27.71
2023-02-15T14:09:42.806Z,28.12
2023-02-15T14:12:27.422Z,27.69
2023-02-15T14:15:12.025Z,28.27
2023-02-15T14:17:53.746Z,27.31
2023-02-15T14:20:27.264Z,27.64
2023-02-15T14:23:11.715Z,29.76
2023-02-15T14:25:46.870Z,30.14
2023-02-15T14:28:18.955Z,29.41
2023-02-15T14:30:51.777Z,30.40
2023-02-15T14:33:35.622Z,29.46
2023-02-15T14:36:07.692Z,29.68
2023-02-15T14:38:46.961Z,28.42
2023-02-15T14:41:19.103Z,28.74
2023-02-15T14:44:02.980Z,28.71
2023-02-15T14:46:37.003Z,28.96
2023-02-15T14:49:13.464Z,29.80
2023-02-15T14:52:00.586Z,31.01
2023-02-15T14:55:00.735Z,32.31
2023-02-15T14:57:37.319Z,32.89
2023-02-15T15:00:33.401Z,33.26
2023-02-15T15:03:02.516Z,35.55
2023-02-15T15:05:37.008Z,36.64
2023-02-15T15:08:07.451Z,37.55
2023-02-15T15:10:46.830Z,37.32
2023-02-15T15:13:55.904Z,37.68
2023-02-15T15:16:33.374Z,37.35
2023-02-15T15:19:02.223Z,38.02
2023-02-15T15:21:57.800Z,41.87
2023-02-15T15:24:52.246Z,42.22
2023-02-15T15:27:47.005Z,42.67
2023-02-15T15:30:49.911Z,41.93
2023-02-15T15:33:42.158Z,41.79
2023-02-15T15:36:33.446Z,41.85
2023-02-15T15:39:20.085Z,43.04
2023-02-15T15:41:55.545Z,45.32
2023-02-15T15:45:01.928Z,45.74
2023-02-15T15:47:42.476Z,46.51
2023-02-15T15:50:16.487Z,45.68
2023-02-15T15:52:49.812Z,45.68
2023-02-15T15:55:22.843Z,47.03
2023-02-15T15:57:53.952Z,46.44
2023-02-15T16:00:34.406Z,46.23
2023-02-15T16:03:02.662Z,46.02
2023-02-15T16:05:38.498Z,45.70
2023-02-15T16:08:07.332Z,44.94
2023-02-15T16:10:39.052Z,46.44
2023-02-15T16:13:09.019Z,46.98
2023-02-15T16:15:45.530Z,46.75
2023-02-15T16:18:18.701Z,48.64
2023-02-15T16:20:54.116Z,48.60
2023-02-15T16:24:02.062Z,48.29
2023-02-15T16:26:58.671Z,48.64
2023-02-15T16:29:31.936Z,49.34
2023-02-15T16:32:02.198Z,48.59
2023-02-15T16:34:33.649Z,49.35
2023-02-15T16:37:24.431Z,49.26
2023-02-15T16:39:53.095Z,49.48
2023-02-15T16:42:24.012Z,48.73
2023-02-15T16:44:57.232Z,47.58
2023-02-15T16:47:27.912Z,48.23
2023-02-15T16:49:59.814Z,47.31
2023-02-15T16:52:30.144Z,46.99
2023-02-15T16:55:02.126Z,47.15
2023-02-15T16:57:36.089Z,46.73
2023-02-15T17:00:07.689Z,45.77
2023-02-15T17:02:54.892Z,45.57
2023-02-15T17:05:25.063Z,45.23
2023-02-15T17:08:13.471Z,46.02
2023-02-15T17:10:44.544Z,45.42
2023-02-15T17:13:16.126Z,45.43
2023-02-15T17:15:46.262Z,45.01
2023-02-15T17:18:19.054Z,45.96
2023-02-15T17:20:49.391Z,48.55
2023-02-15T17:23:26.051Z,50.59
2023-02-15T17:25:54.590Z,52.09
2023-02-15T17:28:27.079Z,50.84
2023-02-15T17:30:57.492Z,49.32
2023-02-15T17:33:30.153Z,49.09
2023-02-15T17:36:07.618Z,49.02
2023-02-15T17:38:36.184Z,48.59
2023-02-15T17:41:04.876Z,49.05
2023-02-15T17:43:37.664Z,48.66
2023-02-15T17:46:06.550Z,49.33
2023-02-15T17:48:38.553Z,49.47
2023-02-15T17:51:12.914Z,49.82
2023-02-15T17:53:41.345Z,50.56
2023-02-15T17:56:11.212Z,51.19
2023-02-15T17:58:41.867Z,52.67
2023-02-15T18:01:36.995Z,53.54
2023-02-15T18:04:23.904Z,53.89
2023-02-15T18:07:09.713Z,54.24
2023-02-15T18:09:55.301Z,52.24
2023-02-15T18:12:25.770Z,50.60
2023-02-15T18:14:56.668Z,50.52
2023-02-15T18:17:32.373Z,51.70
2023-02-15T18:20:01.643Z,50.75
2023-02-15T18:22:30.989Z,51.22
2023-02-15T18:24:59.710Z,51.76
2023-02-15T18:27:28.053Z,53.42
2023-02-15T18:29:57.707Z,54.71
2023-02-15T18:32:34.388Z,54.27
2023-02-15T18:35:04.705Z,55.11
2023-02-15T18:37:34.337Z,55.49
2023-02-15T18:40:04.399Z,53.14
2023-02-15T18:42:35.378Z,53.27
2023-02-15T18:45:16.560Z,53.22
2023-02-15T18:47:45.084Z,54.29
2023-02-15T18:50:14.120Z,56.05
2023-02-15T18:52:44.741Z,55.95
2023-02-15T18:55:19.875Z,54.83
2023-02-15T18:57:49.236Z,53.49
2023-02-15T19:00:23.063Z,52.74
2023-02-15T19:02:51.401Z,53.50
2023-02-15T19:05:19.815Z,54.84
2023-02-15T19:07:49.060Z,53.23
2023-02-15T19:10:22.369Z,54.10
2023-02-15T19:12:51.369Z,54.02
2023-02-15T19:15:23.104Z,53.20
2023-02-15T19:17:52.089Z,53.67
2023-02-15T19:20:22.924Z,54.66
2023-02-15T19:22:54.067Z,53.06
2023-02-15T19:25:25.113Z,52.57
2023-02-15T19:27:54.890Z,52.42
2023-02-15T19:30:28.062Z,53.20
2023-02-15T19:32:56.721Z,53.25
2023-02-15T19:35:28.048Z,52.21
2023-02-15T19:37:58.649Z,52.11
2023-02-15T19:40:29.980Z,52.16
2023-02-15T19:42:58.610Z,52.38
2023-02-15T19:45:29.810Z,52.14
2023-02-15T19:47:58.526Z,52.49
2023-02-15T19:50:29.642Z,52.94
2023-02-15T19:52:58.049Z,52.63
2023-02-15T19:55:29.022Z,52.37
2023-02-15T19:57:58.886Z,52.92
2023-02-15T20:00:30.797Z,52.08
2023-02-15T20:03:00.025Z,52.61
2023-02-15T20:05:29.430Z,52.62
2023-02-15T20:07:58.183Z,53.12
2023-02-15T20:10:29.637Z,54.11
2023-02-15T20:12:59.082Z,53.75
2023-02-15T20:15:30.694Z,53.74
2023-02-15T20:18:00.839Z,53.66
2023-02-15T20:20:34.466Z,53.42
2023-02-15T20:23:05.613Z,53.27
2023-02-15T20:25:34.671Z,54.20
2023-02-15T20:28:03.314Z,53.84
2023-02-15T20:30:33.981Z,55.79
2023-02-15T20:33:02.308Z,54.64
2023-02-15T20:35:30.819Z,54.57
2023-02-15T20:38:01.261Z,55.82
2023-02-15T20:40:31.593Z,56.50
2023-02-15T20:43:02.771Z,57.97
2023-02-15T20:45:34.012Z,57.78
2023-02-15T20:48:02.774Z,56.99
2023-02-15T20:50:33.849Z,58.54
2023-02-15T20:53:03.567Z,58.03
2023-02-15T20:55:33.548Z,56.93
2023-02-15T20:58:03.551Z,56.13
2023-02-15T21:00:33.897Z,57.49
2023-02-15T21:03:06.247Z,58.07
2023-02-15T21:05:35.464Z,55.68
2023-02-15T21:08:03.746Z,55.19
2023-02-15T21:10:35.566Z,53.99
2023-02-15T21:13:04.702Z,53.87
2023-02-15T21:15:36.094Z,54.04
2023-02-15T21:18:05.877Z,54.80
2023-02-15T21:20:36.005Z,54.20
2023-02-15T21:23:07.265Z,54.35
2023-02-15T21:25:37.314Z,54.11
2023-02-15T21:28:08.545Z,53.89
2023-02-15T21:30:38.249Z,53.98
2023-02-15T21:33:06.841Z,55.43
2023-02-15T21:35:35.418Z,55.46
2023-02-15T21:38:03.776Z,55.98
2023-02-15T21:40:33.633Z,55.17
2023-02-15T21:43:19.498Z,55.15
2023-02-15T21:46:06.493Z,54.18
2023-02-15T21:48:34.768Z,54.24
2023-02-15T21:51:20.240Z,53.97
2023-02-15T21:53:48.684Z,54.77
2023-02-15T21:56:19.139Z,54.66
2023-02-15T21:58:47.934Z,54.23
2023-02-15T22:01:24.085Z,54.55
2023-02-15T22:03:54.546Z,54.90
2023-02-15T22:06:23.537Z,55.42
2023-02-15T22:08:51.857Z,55.10
2023-02-15T22:11:22.666Z,56.12
2023-02-15T22:13:51.923Z,56.85
2023-02-15T22:16:23.973Z,56.09
2023-02-15T22:18:52.338Z,55.46
2023-02-15T22:21:20.955Z,55.93
2023-02-15T22:23:49.264Z,56.30
2023-02-15T22:26:23.079Z,55.54
2023-02-15T22:28:52.123Z,55.78
2023-02-15T22:31:23.905Z,55.91
2023-02-15T22:33:52.446Z,55.75
2023-02-15T22:36:25.421Z,55.44
2023-02-15T22:38:54.192Z,55.29
2023-02-15T22:41:24.648Z,55.69
2023-02-15T22:43:53.132Z,55.92
2023-02-15T22:46:25.302Z,56.64
2023-02-15T22:48:54.057Z,55.58
2023-02-15T22:51:24.270Z,55.82
2023-02-15T22:53:55.631Z,56.30
2023-02-15T22:56:28.804Z,56.01
2023-02-15T22:59:04.782Z,55.74
2023-02-15T23:01:36.389Z,55.92
2023-02-15T23:04:04.767Z,55.95
2023-02-15T23:06:34.397Z,55.87
2023-02-15T23:09:02.705Z,56.01
2023-02-15T23:11:33.388Z,55.86
2023-02-15T23:14:03.182Z,55.84
2023-02-15T23:16:31.864Z,56.71
2023-02-15T23:19:01.654Z,56.21
2023-02-15T23:21:31.618Z,56.61
2023-02-15T23:24:11.167Z,56.80
2023-02-15T23:26:39.438Z,57.20
2023-02-15T23:29:13.557Z,56.47
2023-02-15T23:31:45.377Z,56.91
2023-02-15T23:34:18.423Z,56.59
2023-02-15T23:36:46.736Z,57.19
2023-02-15T23:39:36.471Z,58.66
2023-02-15T23:42:07.439Z,57.52
2023-02-15T23:44:35.753Z,57.16
2023-02-15T23:47:04.313Z,57.27
2023-02-15T23:49:36.077Z,57.52
2023-02-15T23:52:04.430Z,57.16
2023-02-15T23:54:32.619Z,57.05
2023-02-15T23:57:03.058Z,57.08
2023-02-15T23:59:33.504Z,57.96
